createdAt,value
2022-11-22T00:00:04.156Z,99200.78
2022-11-22T00:02:30.563Z,99188.59
2022-11-22T00:04:57.056Z,99181.63
2022-11-22T00:07:23.475Z,99175.25
2022-11-22T00:09:49.850Z,99185.78
2022-11-22T00:12:16.194Z,99169.44
2022-11-22T00:14:42.461Z,99178.19
2022-11-22T00:17:08.784Z,99173.00
2022-11-22T00:19:35.096Z,99165.22
2022-11-22T00:22:02.125Z,99155.91
2022-11-22T00:24:28.478Z,99174.09
2022-11-22T00:26:54.746Z,99174.81
2022-11-22T00:29:21.074Z,99175.41
2022-11-22T00:31:47.405Z,99176.00
2022-11-22T00:34:13.616Z,99176.44
2022-11-22T00:36:39.953Z,99164.28
2022-11-22T00:39:06.220Z,99171.22
2022-11-22T00:41:32.610Z,99160.66
2022-11-22T00:43:58.972Z,99174.03
2022-11-22T00:46:25.338Z,99162.28
2022-11-22T00:48:51.683Z,99175.25
2022-11-22T00:51:18.074Z,99172.06
2022-11-22T00:53:44.428Z,99171.00
2022-11-22T00:56:10.708Z,99168.41
2022-11-22T00:58:37.025Z,99151.50
2022-11-22T01:01:03.321Z,99167.03
2022-11-22T01:03:29.719Z,99158.84
2022-11-22T01:05:56.034Z,99161.63
2022-11-22T01:08:22.298Z,99165.41
2022-11-22T01:10:48.623Z,99145.09
2022-11-22T01:13:14.904Z,99165.19
2022-11-22T01:15:41.259Z,99165.78
2022-11-22T01:18:07.635Z,99147.69
2022-11-22T01:20:34.033Z,99168.06
2022-11-22T01:23:00.368Z,99159.84
2022-11-22T01:25:26.696Z,99164.75
2022-11-22T01:27:53.039Z,99158.25
2022-11-22T01:30:19.533Z,99166.41
2022-11-22T01:32:45.896Z,99170.00
2022-11-22T01:35:12.215Z,99173.41
2022-11-22T01:37:38.447Z,99175.16
2022-11-22T01:40:05.458Z,99163.41
2022-11-22T01:42:52.455Z,99159.53
2022-11-22T01:45:30.686Z,99162.88
2022-11-22T01:48:12.866Z,99162.28
2022-11-22T01:50:43.357Z,99160.34
2022-11-22T01:53:15.862Z,99156.72
2022-11-22T01:55:42.776Z,99158.47
2022-11-22T01:58:10.444Z,99155.72
2022-11-22T02:00:38.451Z,99144.16
2022-11-22T02:03:09.027Z,99128.59
2022-11-22T02:05:35.780Z,99134.81
2022-11-22T02:08:09.490Z,99136.84
2022-11-22T02:10:40.149Z,99133.63
2022-11-22T02:13:07.827Z,99134.00
2022-11-22T02:15:35.964Z,99138.53
2022-11-22T02:18:02.304Z,99137.00
2022-11-22T02:20:28.603Z,99160.03
2022-11-22T02:23:13.744Z,99162.22
2022-11-22T02:25:57.653Z,99158.28
2022-11-22T02:28:26.493Z,99175.38
2022-11-22T02:30:52.839Z,99156.81
2022-11-22T02:33:19.067Z,99167.09
2022-11-22T02:35:45.725Z,99161.16
2022-11-22T02:38:19.373Z,99168.97
2022-11-22T02:40:52.899Z,99156.63
2022-11-22T02:43:23.603Z,99154.44
2022-11-22T02:45:49.934Z,99166.41
2022-11-22T02:48:16.813Z,99164.66
2022-11-22T02:50:43.699Z,99166.09
2022-11-22T02:53:11.037Z,99170.38
2022-11-22T02:55:37.887Z,99160.59
2022-11-22T02:58:05.083Z,99170.59
2022-11-22T03:00:36.125Z,99174.00
2022-11-22T03:03:02.526Z,99164.47
2022-11-22T03:05:28.885Z,99168.25
2022-11-22T03:07:55.316Z,99177.97
2022-11-22T03:10:21.868Z,99171.44
2022-11-22T03:12:48.214Z,99166.69
2022-11-22T03:15:14.678Z,99180.25
2022-11-22T03:17:41.045Z,99191.22
2022-11-22T03:20:08.088Z,99183.69
2022-11-22T03:22:34.462Z,99169.44
2022-11-22T03:25:00.833Z,99180.97
2022-11-22T03:27:27.245Z,99177.41
2022-11-22T03:29:53.630Z,99174.66
2022-11-22T03:32:19.953Z,99186.38
2022-11-22T03:34:46.180Z,99190.00
2022-11-22T03:37:12.510Z,99175.66
2022-11-22T03:39:38.817Z,99190.97
2022-11-22T03:42:05.280Z,99200.78
2022-11-22T03:44:31.604Z,99190.25
2022-11-22T03:46:57.859Z,99208.38
2022-11-22T03:49:24.155Z,99217.00
2022-11-22T03:51:50.969Z,99218.78
2022-11-22T03:54:17.346Z,99224.97
2022-11-22T03:56:43.589Z,99215.97
2022-11-22T03:59:09.941Z,99212.00
2022-11-22T04:01:36.293Z,99217.78
2022-11-22T04:04:02.758Z,99227.16
2022-11-22T04:06:29.129Z,99211.22
2022-11-22T04:08:55.421Z,99230.34
2022-11-22T04:11:21.905Z,99220.81
2022-11-22T04:13:48.230Z,99229.53
2022-11-22T04:16:14.523Z,99234.72
2022-11-22T04:18:40.881Z,99233.69
2022-11-22T04:21:07.115Z,99244.84
2022-11-22T04:23:34.433Z,99230.91
2022-11-22T04:26:00.893Z,99237.06
2022-11-22T04:28:47.092Z,99246.16
2022-11-22T04:31:13.411Z,99235.88
2022-11-22T04:33:39.703Z,99248.44
2022-11-22T04:36:10.326Z,99241.91
2022-11-22T04:38:39.560Z,99246.88
2022-11-22T04:41:05.806Z,99251.22
2022-11-22T04:43:32.126Z,99250.88
2022-11-22T04:45:58.416Z,99254.84
2022-11-22T04:48:24.759Z,99245.09
2022-11-22T04:50:51.078Z,99232.19
2022-11-22T04:53:17.989Z,99248.53
2022-11-22T04:55:47.039Z,99251.94
2022-11-22T04:58:13.853Z,99251.75
2022-11-22T05:00:40.757Z,99233.41
2022-11-22T05:03:07.772Z,99238.25
2022-11-22T05:05:39.078Z,99238.47
2022-11-22T05:08:06.718Z,99249.06
2022-11-22T05:10:33.991Z,99247.88
2022-11-22T05:13:00.330Z,99251.66
2022-11-22T05:15:26.591Z,99262.25
2022-11-22T05:17:52.966Z,99252.91
2022-11-22T05:20:19.274Z,99262.69
2022-11-22T05:22:45.849Z,99259.31
2022-11-22T05:25:12.471Z,99259.50
2022-11-22T05:27:39.047Z,99265.69
2022-11-22T05:30:06.416Z,99277.06
2022-11-22T05:32:33.277Z,99262.72
2022-11-22T05:35:00.157Z,99262.72
2022-11-22T05:37:26.794Z,99268.34
2022-11-22T05:39:53.116Z,99261.56
2022-11-22T05:42:19.393Z,99283.09
2022-11-22T05:44:45.709Z,99270.94
2022-11-22T05:47:12.119Z,99261.56
2022-11-22T05:49:38.402Z,99284.91
2022-11-22T05:52:04.894Z,99287.09
2022-11-22T05:54:31.274Z,99276.94
2022-11-22T05:56:58.055Z,99276.34
2022-11-22T05:59:24.276Z,99278.34
2022-11-22T06:01:50.655Z,99282.31
2022-11-22T06:04:16.962Z,99280.94
2022-11-22T06:06:43.320Z,99270.75
2022-11-22T06:09:09.622Z,99279.53
2022-11-22T06:11:35.958Z,99269.75
2022-11-22T06:14:02.213Z,99277.94
2022-11-22T06:16:28.946Z,99275.16
2022-11-22T06:18:56.149Z,99282.09
2022-11-22T06:21:25.787Z,99267.56
2022-11-22T06:23:53.881Z,99291.28
2022-11-22T06:26:21.872Z,99278.31
2022-11-22T06:28:49.062Z,99288.88
2022-11-22T06:31:20.838Z,99309.41
2022-11-22T06:33:48.003Z,99296.84
2022-11-22T06:36:19.602Z,99305.97
2022-11-22T06:38:46.605Z,99300.03
2022-11-22T06:41:15.898Z,99304.59
2022-11-22T06:43:48.585Z,99308.81
2022-11-22T06:46:19.797Z,99301.81
2022-11-22T06:48:46.577Z,99302.00
2022-11-22T06:51:17.771Z,99314.78
2022-11-22T06:53:47.781Z,99303.44
2022-11-22T06:56:26.449Z,99319.94
2022-11-22T06:58:54.467Z,99309.41
2022-11-22T07:01:26.897Z,99318.56
2022-11-22T07:03:54.641Z,99310.59
2022-11-22T07:06:21.022Z,99316.78
2022-11-22T07:08:47.409Z,99327.34
2022-11-22T07:11:19.643Z,99323.72
2022-11-22T07:13:47.436Z,99330.53
2022-11-22T07:16:16.665Z,99328.13
2022-11-22T07:18:43.492Z,99324.94
2022-11-22T07:21:18.667Z,99326.75
2022-11-22T07:23:47.582Z,99334.28
2022-11-22T07:26:15.795Z,99332.88
2022-11-22T07:28:42.708Z,99335.47
2022-11-22T07:31:10.879Z,99332.88
2022-11-22T07:33:37.521Z,99333.88
2022-11-22T07:36:11.346Z,99339.66
2022-11-22T07:38:38.015Z,99328.50
2022-11-22T07:41:05.442Z,99341.88
2022-11-22T07:43:32.366Z,99342.47
2022-11-22T07:46:03.676Z,99346.66
2022-11-22T07:48:30.115Z,99336.09
2022-11-22T07:50:56.451Z,99354.84
2022-11-22T07:53:23.315Z,99350.47
2022-11-22T07:55:49.679Z,99344.91
2022-11-22T07:58:16.070Z,99351.28
2022-11-22T08:00:42.362Z,99367.22
2022-11-22T08:03:08.883Z,99364.66
2022-11-22T08:05:35.246Z,99365.84
2022-11-22T08:08:01.538Z,99377.63
2022-11-22T08:10:27.956Z,99353.31
2022-11-22T08:12:57.837Z,99357.28
2022-11-22T08:15:24.218Z,99361.47
2022-11-22T08:17:50.499Z,99373.59
2022-11-22T08:20:17.011Z,99374.41
2022-11-22T08:22:43.382Z,99365.66
2022-11-22T08:25:09.688Z,99376.63
2022-11-22T08:27:36.010Z,99368.84
2022-11-22T08:30:02.321Z,99373.97
2022-11-22T08:32:28.685Z,99365.59
2022-11-22T08:34:54.981Z,99366.56
2022-11-22T08:37:21.315Z,99365.59
2022-11-22T08:39:47.584Z,99375.31
2022-11-22T08:42:13.905Z,99356.38
2022-11-22T08:44:40.180Z,99374.69
2022-11-22T08:47:06.533Z,99378.28
2022-11-22T08:49:33.275Z,99358.13
2022-11-22T08:51:59.732Z,99378.09
2022-11-22T08:54:26.008Z,99378.25
2022-11-22T08:56:52.374Z,99381.78
2022-11-22T08:59:18.785Z,99383.19
2022-11-22T09:01:45.216Z,99361.25
2022-11-22T09:04:12.510Z,99378.56
2022-11-22T09:09:40.499Z,99370.38
2022-11-22T09:12:07.334Z,99392.69
2022-11-22T09:14:33.693Z,99380.75
2022-11-22T09:16:59.960Z,99395.91
2022-11-22T09:19:26.319Z,99403.69
2022-11-22T09:21:52.658Z,99410.47
2022-11-22T09:24:19.027Z,99405.47
2022-11-22T09:26:45.476Z,99401.25
2022-11-22T09:29:11.927Z,99400.22
2022-11-22T09:31:38.439Z,99406.00
2022-11-22T09:34:04.847Z,99409.34
2022-11-22T09:36:31.224Z,99414.34
2022-11-22T09:38:57.620Z,99405.06
2022-11-22T09:41:45.447Z,99414.78
2022-11-22T09:44:48.887Z,99424.84
2022-11-22T09:47:21.717Z,99419.97
2022-11-22T09:50:13.153Z,99407.72
2022-11-22T09:52:49.326Z,99406.97
2022-11-22T09:55:34.875Z,99414.28
2022-11-22T09:58:06.001Z,99413.88
2022-11-22T10:00:33.090Z,99414.66
2022-11-22T10:03:16.235Z,99418.88
2022-11-22T10:05:49.789Z,99417.38
2022-11-22T10:08:40.027Z,99410.72
2022-11-22T10:11:18.906Z,99405.31
2022-11-22T10:13:55.830Z,99397.81
2022-11-22T10:16:50.701Z,99417.09
2022-11-22T10:19:28.747Z,99399.75
2022-11-22T10:21:55.375Z,99417.41
2022-11-22T10:24:21.763Z,99409.66
2022-11-22T10:26:48.141Z,99411.63
2022-11-22T10:29:54.186Z,99393.84
2022-11-22T10:32:36.929Z,99401.78
2022-11-22T10:35:23.739Z,99413.28
2022-11-22T10:38:26.476Z,99411.03
2022-11-22T10:41:09.824Z,99411.00
2022-11-22T10:43:43.981Z,99393.41
2022-11-22T10:46:39.321Z,99403.81
2022-11-22T10:49:30.278Z,99407.88
2022-11-22T10:52:17.194Z,99403.03
2022-11-22T10:55:16.726Z,99402.28
2022-11-22T10:58:04.143Z,99398.25
2022-11-22T11:00:32.964Z,99389.34
2022-11-22T11:03:04.130Z,99406.13
2022-11-22T11:05:55.002Z,99393.03
2022-11-22T11:09:23.455Z,99392.06
2022-11-22T11:11:30.358Z,99381.25
2022-11-22T11:14:01.007Z,99388.41
2022-11-22T11:16:32.455Z,99377.31
2022-11-22T11:19:10.864Z,99387.03
2022-11-22T11:21:37.549Z,99373.84
2022-11-22T11:24:12.017Z,99386.06
2022-11-22T11:26:38.533Z,99376.53
2022-11-22T11:29:16.988Z,99379.06
2022-11-22T11:31:44.263Z,99367.94
2022-11-22T11:34:20.544Z,99380.81
2022-11-22T11:36:47.535Z,99373.34
2022-11-22T11:39:28.210Z,99375.97
2022-11-22T11:41:55.462Z,99367.28
2022-11-22T11:44:34.425Z,99376.78
2022-11-22T11:47:01.117Z,99354.41
2022-11-22T11:49:29.995Z,99355.63
2022-11-22T11:52:07.458Z,99378.22
2022-11-22T11:54:42.583Z,99368.59
2022-11-22T11:57:15.688Z,99383.72
2022-11-22T11:59:46.125Z,99369.88
2022-11-22T12:02:25.748Z,99357.16
2022-11-22T12:04:53.404Z,99365.50
2022-11-22T12:07:47.044Z,99360.56
2022-11-22T12:10:41.107Z,99368.09
2022-11-22T12:13:21.004Z,99355.38
2022-11-22T12:15:58.766Z,99362.31
2022-11-22T12:19:04.722Z,99363.75
2022-11-22T12:22:08.791Z,99364.91
2022-11-22T12:25:16.937Z,99367.72
2022-11-22T12:27:43.500Z,99359.72
2022-11-22T12:30:13.719Z,99349.59
2022-11-22T12:32:45.144Z,99355.00
2022-11-22T12:35:18.649Z,99358.75
2022-11-22T12:38:17.109Z,99371.56
2022-11-22T12:40:48.199Z,99366.38
2022-11-22T12:43:23.233Z,99359.84
2022-11-22T12:45:57.448Z,99368.72
2022-11-22T12:48:47.184Z,99360.78
2022-11-22T12:51:36.732Z,99366.28
2022-11-22T12:54:08.249Z,99336.56
2022-11-22T12:56:56.472Z,99354.63
2022-11-22T12:59:50.806Z,99351.44
2022-11-22T13:02:38.848Z,99348.47
2022-11-22T13:05:28.556Z,99361.88
2022-11-22T13:08:07.469Z,99363.81
2022-11-22T13:10:54.652Z,99361.16
2022-11-22T13:13:52.989Z,99354.50
2022-11-22T13:16:19.411Z,99349.94
2022-11-22T13:18:55.239Z,99358.25
2022-11-22T13:21:47.717Z,99369.84
2022-11-22T13:24:43.611Z,99344.72
2022-11-22T13:27:15.911Z,99370.25
2022-11-22T13:29:43.452Z,99370.63
2022-11-22T13:32:12.785Z,99368.22
2022-11-22T13:35:01.188Z,99371.41
2022-11-22T13:37:30.013Z,99367.22
2022-11-22T13:39:56.593Z,99355.66
2022-11-22T13:42:27.990Z,99359.84
2022-11-22T13:44:54.314Z,99361.81
2022-11-22T13:47:23.744Z,99360.63
2022-11-22T13:49:51.819Z,99354.25
2022-11-22T13:52:18.116Z,99364.47
2022-11-22T13:54:47.630Z,99364.63
2022-11-22T13:57:37.374Z,99354.72
2022-11-22T14:00:12.786Z,99369.47
2022-11-22T14:02:54.670Z,99360.88
2022-11-22T14:05:26.426Z,99364.41
2022-11-22T14:07:55.776Z,99358.59
2022-11-22T14:10:31.351Z,99356.94
2022-11-22T14:13:34.792Z,99344.22
2022-11-22T14:16:47.715Z,99346.19
2022-11-22T14:19:47.231Z,99343.91
2022-11-22T14:22:26.962Z,99331.34
2022-11-22T14:25:20.038Z,99341.69
2022-11-22T14:28:18.529Z,99346.88
2022-11-22T14:30:52.883Z,99346.09
2022-11-22T14:33:22.279Z,99342.03
2022-11-22T14:36:06.932Z,99355.84
2022-11-22T14:38:39.945Z,99345.53
2022-11-22T14:41:28.225Z,99355.06
2022-11-22T14:43:58.086Z,99354.03
2022-11-22T14:46:51.847Z,99345.66
2022-11-22T14:49:22.194Z,99342.91
2022-11-22T14:51:52.714Z,99328.09
2022-11-22T14:54:31.891Z,99332.88
2022-11-22T14:57:04.850Z,99339.66
2022-11-22T15:00:02.306Z,99333.50
2022-11-22T15:03:05.694Z,99342.63
2022-11-22T15:09:12.684Z,99339.44
2022-11-22T15:09:48.996Z,99350.44
2022-11-22T15:12:43.995Z,99338.72
2022-11-22T15:59:09.284Z,99359.84
2022-11-22T16:01:42.487Z,99362.44
2022-11-22T16:04:22.283Z,99373.16
2022-11-22T16:06:50.039Z,99364.63
2022-11-22T16:09:24.794Z,99364.53
2022-11-22T16:11:54.471Z,99367.94
2022-11-22T16:14:40.277Z,99357.38
2022-11-22T16:17:37.897Z,99372.72
2022-11-22T16:20:22.409Z,99374.53
2022-11-22T16:23:10.913Z,99378.94
2022-11-22T16:25:43.029Z,99366.34
2022-11-22T16:28:21.280Z,99375.31
2022-11-22T16:30:47.895Z,99367.34
2022-11-22T16:33:14.394Z,99362.16
2022-11-22T16:35:40.756Z,99366.94
2022-11-22T16:38:07.156Z,99365.41
2022-11-22T16:40:41.024Z,99356.06
2022-11-22T16:43:14.677Z,99361.81
2022-11-22T16:45:41.105Z,99371.84
2022-11-22T16:48:31.830Z,99371.78
2022-11-22T16:51:04.702Z,99378.94
2022-11-22T16:53:39.775Z,99378.34
2022-11-22T16:56:06.929Z,99376.41
2022-11-22T16:58:33.414Z,99368.06
2022-11-22T17:01:00.709Z,99352.53
2022-11-22T17:03:28.095Z,99358.69
2022-11-22T17:05:54.392Z,99346.94
2022-11-22T17:08:20.739Z,99365.31
2022-11-22T17:10:49.588Z,99354.16
2022-11-22T17:13:18.404Z,99368.94
2022-11-22T17:15:45.762Z,99355.97
2022-11-22T17:18:12.156Z,99363.00
2022-11-22T17:20:38.581Z,99370.59
2022-11-22T17:23:09.717Z,99359.81
2022-11-22T17:25:36.028Z,99369.78
2022-11-22T17:28:02.329Z,99391.72
2022-11-22T17:30:28.620Z,99376.31
2022-11-22T17:32:54.867Z,99386.44
2022-11-22T17:35:21.255Z,99375.09
2022-11-22T17:37:47.573Z,99387.81
2022-11-22T17:40:14.095Z,99395.00
2022-11-22T17:42:41.421Z,99385.66
2022-11-22T17:45:07.996Z,99391.00
2022-11-22T17:47:34.350Z,99405.16
2022-11-22T17:50:00.675Z,99406.69
2022-11-22T17:52:27.118Z,99405.25
2022-11-22T17:54:53.489Z,99409.88
2022-11-22T17:57:20.035Z,99399.16
2022-11-22T17:59:46.423Z,99409.28
2022-11-22T18:02:12.786Z,99398.50
2022-11-22T18:04:39.498Z,99402.94
2022-11-22T18:07:06.294Z,99405.53
2022-11-22T18:09:35.634Z,99386.63
2022-11-22T18:12:02.202Z,99407.91
2022-11-22T18:14:28.570Z,99402.75
2022-11-22T18:16:54.919Z,99408.34
2022-11-22T18:19:21.231Z,99412.09
2022-11-22T18:21:47.505Z,99411.91
2022-11-22T18:24:13.844Z,99403.13
2022-11-22T18:26:41.298Z,99406.75
2022-11-22T18:31:57.646Z,99404.50
2022-11-22T18:34:24.687Z,99410.44
2022-11-22T18:36:57.589Z,99417.88
2022-11-22T18:39:28.190Z,99406.97
2022-11-22T18:41:54.767Z,99404.88
2022-11-22T18:44:21.103Z,99402.13
2022-11-22T18:46:47.628Z,99413.34
2022-11-22T18:49:14.047Z,99410.28
2022-11-22T18:51:40.482Z,99392.94
2022-11-22T18:54:08.549Z,99402.84
2022-11-22T18:56:34.891Z,99403.66
2022-11-22T18:59:01.196Z,99416.81
2022-11-22T19:01:27.644Z,99416.44
2022-11-22T19:03:53.991Z,99422.19
2022-11-22T19:06:20.325Z,99430.34
2022-11-22T19:08:47.159Z,99413.81
2022-11-22T19:11:13.638Z,99415.38
2022-11-22T19:13:42.003Z,99411.78
2022-11-22T19:16:34.702Z,99428.97
2022-11-22T19:19:01.093Z,99422.47
2022-11-22T19:21:28.623Z,99417.03
2022-11-22T19:23:55.863Z,99424.41
2022-11-22T19:26:24.455Z,99417.47
2022-11-22T19:28:52.328Z,99430.41
2022-11-22T19:31:20.496Z,99427.81
2022-11-22T19:33:47.073Z,99424.34
2022-11-22T19:36:23.480Z,99419.13
2022-11-22T19:38:52.855Z,99411.19
2022-11-22T19:41:21.984Z,99419.13
2022-11-22T19:43:49.833Z,99424.31
2022-11-22T19:46:16.607Z,99415.16
2022-11-22T19:48:47.046Z,99433.31
2022-11-22T19:51:14.871Z,99420.75
2022-11-22T19:53:41.958Z,99430.72
2022-11-22T19:56:18.638Z,99419.13
2022-11-22T19:58:50.693Z,99430.31
2022-11-22T20:01:17.912Z,99427.47
2022-11-22T20:03:45.306Z,99425.66
2022-11-22T20:06:13.686Z,99421.09
2022-11-22T20:08:40.752Z,99435.50
2022-11-22T20:11:13.489Z,99423.47
2022-11-22T20:13:44.893Z,99438.69
2022-11-22T20:16:18.881Z,99440.28
2022-11-22T20:18:45.262Z,99429.13
2022-11-22T20:21:11.682Z,99438.47
2022-11-22T20:23:38.723Z,99432.47
2022-11-22T20:26:10.606Z,99437.66
2022-11-22T20:28:38.598Z,99443.44
2022-11-22T20:31:15.041Z,99438.13
2022-11-22T20:33:43.457Z,99456.44
2022-11-22T20:36:11.484Z,99450.84
2022-11-22T20:38:39.834Z,99447.66
2022-11-22T20:41:07.203Z,99449.03
2022-11-22T20:43:34.808Z,99445.78
2022-11-22T20:46:12.670Z,99460.78
2022-11-22T20:48:40.702Z,99453.38
2022-11-22T20:51:10.471Z,99450.56
2022-11-22T20:53:37.372Z,99454.16
2022-11-22T20:56:04.649Z,99435.06
2022-11-22T20:58:31.875Z,99457.00
2022-11-22T21:00:58.861Z,99463.13
2022-11-22T21:03:25.745Z,99463.75
2022-11-22T21:05:54.224Z,99460.13
2022-11-22T21:08:22.575Z,99460.78
2022-11-22T21:10:48.916Z,99448.53
2022-11-22T21:13:15.259Z,99462.06
2022-11-22T21:15:41.635Z,99456.06
2022-11-22T21:18:24.731Z,99459.69
2022-11-22T21:20:52.619Z,99475.25
2022-11-22T21:23:19.123Z,99466.19
2022-11-22T21:25:46.617Z,99461.78
2022-11-22T21:28:13.031Z,99472.78
2022-11-22T21:30:39.390Z,99459.41
2022-11-22T21:33:05.789Z,99473.94
2022-11-22T21:35:32.248Z,99479.28
2022-11-22T21:37:58.611Z,99477.13
2022-11-22T21:40:24.952Z,99469.31
2022-11-22T21:42:51.266Z,99476.31
2022-11-22T21:45:17.640Z,99469.31
2022-11-22T21:47:44.030Z,99482.13
2022-11-22T21:50:12.014Z,99469.53
2022-11-22T21:52:38.512Z,99472.13
2022-11-22T21:55:05.281Z,99481.13
2022-11-22T21:57:31.626Z,99481.13
2022-11-22T21:59:57.967Z,99485.75
2022-11-22T22:02:24.329Z,99483.13
2022-11-22T22:04:50.653Z,99483.13
2022-11-22T22:07:36.656Z,99494.16
2022-11-22T22:10:05.180Z,99493.84
2022-11-22T22:12:31.565Z,99496.31
2022-11-22T22:14:57.943Z,99496.31
2022-11-22T22:17:24.316Z,99484.41
2022-11-22T22:19:50.660Z,99487.47
2022-11-22T22:22:17.031Z,99487.84
2022-11-22T22:24:43.495Z,99481.13
2022-11-22T22:27:09.915Z,99483.84
2022-11-22T22:29:36.345Z,99476.31
2022-11-22T22:32:07.563Z,99491.25
2022-11-22T22:34:36.679Z,99479.09
2022-11-22T22:37:03.065Z,99478.88
2022-11-22T22:39:29.837Z,99497.97
2022-11-22T22:41:56.517Z,99494.56
2022-11-22T22:44:22.868Z,99483.34
2022-11-22T22:46:49.203Z,99481.09
2022-11-22T22:49:15.609Z,99497.31
2022-11-22T22:51:42.034Z,99490.38
2022-11-22T22:54:10.120Z,99502.94
2022-11-22T22:56:36.512Z,99497.97
2022-11-22T22:59:03.016Z,99491.38
2022-11-22T23:01:30.958Z,99499.34
2022-11-22T23:03:59.591Z,99501.38
2022-11-22T23:06:28.989Z,99504.56
2022-11-22T23:08:56.090Z,99504.63
2022-11-22T23:11:24.965Z,99488.47
2022-11-22T23:13:51.320Z,99494.84
2022-11-22T23:16:17.642Z,99500.00
2022-11-22T23:18:44.663Z,99516.59
2022-11-22T23:21:14.706Z,99498.56
2022-11-22T23:23:41.445Z,99501.94
2022-11-22T23:26:12.161Z,99501.94
2022-11-22T23:28:38.839Z,99499.56
2022-11-22T23:31:15.694Z,99509.94
2022-11-22T23:33:43.766Z,99498.19
2022-11-22T23:36:13.162Z,99514.91
2022-11-22T23:38:40.168Z,99518.66
2022-11-22T23:41:07.145Z,99516.00
2022-11-22T23:43:33.524Z,99524.03
2022-11-22T23:46:00.054Z,99527.00
2022-11-22T23:48:27.537Z,99528.59
2022-11-22T23:50:53.967Z,99524.59
2022-11-22T23:53:20.597Z,99528.16
2022-11-22T23:55:46.966Z,99531.13
2022-11-22T23:58:13.345Z,99522.38
